Time;durP1;ratioP1;P1;durP2;ratioP2;P2;SDS_P1;SDS_P2;PMS_P1;PMS_P2;Temp;Humidity;BMP_temperature;BMP_pressure;BME280_temperature;BME280_humidity;BME280_pressure;Samples;Min_cycle;Max_cycle;Signal;HPM_P1;HPM_P2
2022/09/01 00:01:50;;;;;;;;;10.67;9.67;;;;;25.10;45.44;101158.25;4952835;28;46872;-65
2022/09/01 00:04:19;;;;;;;;;7.33;7.33;;;;;25.11;45.77;101163.53;4955627;28;45661;-65
2022/09/01 00:06:46;;;;;;;;;9.67;9.67;;;;;25.08;45.67;101155.66;4954698;28;45535;-66
2022/09/01 00:09:18;;;;;;;;;10.00;10.00;;;;;25.07;45.56;101161.97;4954930;28;45468;-64
2022/09/01 00:11:48;;;;;;;;;9.67;9.00;;;;;25.09;45.70;101159.22;4954982;28;45482;-65
2022/09/01 00:14:14;;;;;;;;;11.33;9.33;;;;;25.08;45.40;101160.13;4958678;28;45555;-64
2022/09/01 00:16:40;;;;;;;;;11.67;10.67;;;;;25.06;45.96;101165.59;4958826;28;45526;-64
2022/09/01 00:19:06;;;;;;;;;8.00;8.00;;;;;25.01;45.99;101148.91;4954726;28;45532;-66
2022/09/01 00:21:38;;;;;;;;;10.67;10.33;;;;;25.01;45.61;101150.69;4954585;28;45614;-65
2022/09/01 00:24:05;;;;;;;;;10.00;8.33;;;;;24.91;45.99;101135.06;4955180;28;45463;-65
2022/09/01 00:26:31;;;;;;;;;11.00;9.67;;;;;25.02;45.54;101144.41;4954995;28;45292;-66
2022/09/01 00:28:56;;;;;;;;;12.33;10.33;;;;;24.94;45.79;101137.63;4955488;28;45492;-66
2022/09/01 11:13:36;;;;;;;;;12.67;11.33;;;;;26.35;43.25;101106.72;5106046;27;45828;-68
2022/09/01 11:16:35;;;;;;;;;11.33;11.33;;;;;26.51;42.47;101086.09;5064822;27;45722;-66
2022/09/01 11:19:20;;;;;;;;;11.67;11.67;;;;;26.82;42.11;101098.56;5064081;27;45534;-66
2022/09/01 11:21:47;;;;;;;;;11.00;10.00;;;;;27.14;41.32;101087.66;5079488;27;45501;-65
2022/09/01 11:24:37;;;;;;;;;11.33;10.33;;;;;27.45;40.70;101096.53;5074758;27;45862;-66
2022/09/01 11:27:04;;;;;;;;;10.33;10.33;;;;;27.61;40.50;101088.34;5082676;27;46729;-65
2022/09/01 11:29:57;;;;;;;;;9.67;9.33;;;;;27.67;39.55;101083.44;5077642;27;46151;-65
2022/09/01 11:32:35;;;;;;;;;9.25;8.00;;;;;27.92;39.94;101080.06;5079661;27;45231;-66
2022/09/01 11:35:15;;;;;;;;;11.25;10.25;;;;;28.03;37.91;101081.19;5074970;27;46080;-64
2022/09/01 11:37:41;;;;;;;;;9.75;9.25;;;;;28.06;38.00;101073.75;5081214;27;45393;-64
2022/09/01 11:40:09;;;;;;;;;11.25;9.75;;;;;28.11;37.69;101071.63;5077605;27;45643;-63
2022/09/01 11:42:39;;;;;;;;;12.25;10.00;;;;;28.21;36.46;101077.25;5084669;27;45466;-63
2022/09/01 11:45:17;;;;;;;;;7.75;7.75;;;;;28.19;36.21;101081.03;5075264;27;46214;-64
2022/09/01 11:47:45;;;;;;;;;9.00;8.50;;;;;28.17;36.21;101066.81;5076465;27;45488;-64
2022/09/01 11:50:32;;;;;;;;;6.75;6.75;;;;;28.12;36.04;101072.50;5079041;27;45601;-65
2022/09/01 11:53:04;;;;;;;;;9.00;7.75;;;;;28.16;36.51;101052.47;5087820;27;45676;-64
2022/09/01 11:55:34;;;;;;;;;7.75;7.75;;;;;28.34;35.38;101078.16;5082120;27;45773;-64
2022/09/01 11:58:01;;;;;;;;;8.00;7.75;;;;;28.42;35.62;101064.19;5086562;27;45742;-65
2022/09/01 12:00:30;;;;;;;;;9.00;8.75;;;;;28.70;35.40;101068.56;5091964;27;45459;-64
2022/09/01 12:02:58;;;;;;;;;9.25;9.25;;;;;28.67;35.15;101067.94;5087625;27;45915;-65
2022/09/01 12:05:25;;;;;;;;;6.25;6.25;;;;;28.79;35.34;101063.53;5083555;27;45556;-65
2022/09/01 12:07:52;;;;;;;;;7.50;7.50;;;;;29.23;35.29;101065.81;5087435;27;45484;-65
2022/09/01 12:10:26;;;;;;;;;7.50;7.50;;;;;29.65;33.80;101058.28;5082450;27;45797;-64
2022/09/01 12:13:03;;;;;;;;;9.50;8.75;;;;;29.78;33.75;101060.97;5088124;27;45563;-69
2022/09/01 12:15:30;;;;;;;;;7.00;7.00;;;;;29.97;34.13;101058.66;5088910;27;45343;-65
2022/09/01 12:18:46;;;;;;;;;7.25;7.25;;;;;30.08;33.44;101065.94;5088533;27;45884;-64
2022/09/01 12:21:23;;;;;;;;;7.25;7.25;;;;;30.33;33.00;101047.91;5065681;27;46208;-64
2022/09/01 12:23:49;;;;;;;;;7.75;7.75;;;;;30.68;33.47;101055.13;5074552;27;45547;-66
2022/09/01 12:26:20;;;;;;;;;15.25;14.50;;;;;30.54;32.66;101054.38;5066050;27;45801;-64
2022/09/01 12:28:48;;;;;;;;;8.25;8.25;;;;;30.33;32.86;101045.22;5089157;27;45526;-64
2022/09/01 12:31:17;;;;;;;;;8.50;8.50;;;;;30.55;32.58;101053.38;5073433;27;45733;-64
2022/09/01 12:33:44;;;;;;;;;7.25;7.25;;;;;30.37;32.72;101050.28;5055422;27;45659;-65
2022/09/01 12:36:21;;;;;;;;;12.00;10.75;;;;;30.59;32.70;101051.31;5054234;27;46280;-64
2022/09/01 12:38:47;;;;;;;;;10.00;9.00;;;;;30.48;32.21;101032.38;5056156;27;45493;-65
2022/09/01 12:41:59;;;;;;;;;10.00;9.00;;;;;30.57;32.53;101050.56;5057973;27;45392;-65
2022/09/01 12:44:33;;;;;;;;;8.75;8.25;;;;;31.92;31.21;101039.78;5051813;27;45475;-65
2022/09/01 12:47:06;;;;;;;;;7.75;7.75;;;;;32.47;30.35;101032.41;5056902;28;45406;-65
2022/09/01 12:49:42;;;;;;;;;8.00;8.00;;;;;32.28;30.26;101035.84;5064208;27;45457;-68
2022/09/01 12:52:24;;;;;;;;;8.25;8.25;;;;;31.87;30.54;101034.75;5073285;28;45448;-66
2022/09/01 12:55:02;;;;;;;;;10.00;10.00;;;;;31.50;31.60;101044.19;5063181;27;45501;-68
2022/09/01 12:57:30;;;;;;;;;8.00;7.25;;;;;31.45;31.20;101039.16;5069243;27;45591;-68
2022/09/01 13:00:26;;;;;;;;;8.40;8.40;;;;;32.23;30.41;101034.53;5055924;27;45910;-67
2022/09/01 13:02:54;;;;;;;;;7.50;7.00;;;;;32.56;30.19;101027.22;5044643;27;45491;-65
2022/09/01 13:05:25;;;;;;;;;11.25;9.25;;;;;31.79;30.91;101023.69;5054993;27;45735;-64
2022/09/01 13:07:57;;;;;;;;;8.75;8.00;;;;;31.20;31.73;101021.28;5090651;27;47080;-67
2022/09/01 13:10:31;;;;;;;;;10.20;10.00;;;;;31.37;31.97;101025.31;5058344;27;45823;-66
2022/09/01 13:12:57;;;;;;;;;10.00;8.00;;;;;31.17;31.83;101016.97;5058797;27;45557;-67
2022/09/01 13:15:24;;;;;;;;;9.00;9.00;;;;;30.74;32.73;101022.22;5058925;27;45612;-67
2022/09/01 13:17:51;;;;;;;;;11.25;8.75;;;;;30.63;33.31;101025.75;5054502;27;45552;-69
2022/09/01 13:20:18;;;;;;;;;9.00;9.00;;;;;31.10;32.95;101015.75;5054813;27;45615;-65
2022/09/01 13:22:44;;;;;;;;;9.50;8.25;;;;;31.57;32.94;101015.63;5054583;27;45497;-69
2022/09/01 13:25:16;;;;;;;;;9.00;9.00;;;;;31.69;32.50;101006.47;5057641;27;45540;-68
2022/09/01 13:27:43;;;;;;;;;11.50;8.75;;;;;31.78;31.40;101015.69;5053112;28;46793;-66
2022/09/01 13:30:10;;;;;;;;;9.75;9.75;;;;;31.56;31.60;101012.06;5069697;27;45572;-68
2022/09/01 13:32:37;;;;;;;;;7.20;7.20;;;;;32.01;32.01;101009.25;5057194;27;45531;-66
2022/09/01 13:35:03;;;;;;;;;12.00;9.00;;;;;31.94;31.41;101005.31;5062140;27;45394;-65
2022/09/01 13:37:29;;;;;;;;;10.00;10.00;;;;;31.49;31.18;100997.31;5063087;27;46396;-65
2022/09/01 13:39:58;;;;;;;;;12.75;12.75;;;;;31.11;31.91;101001.25;5058630;28;45843;-66
2022/09/01 13:42:24;;;;;;;;;9.25;9.00;;;;;30.91;32.36;100996.56;5053880;27;45440;-65
2022/09/01 13:45:02;;;;;;;;;9.75;9.25;;;;;30.83;32.58;100997.16;5056821;27;45467;-67
2022/09/01 13:47:29;;;;;;;;;9.75;8.25;;;;;30.98;32.22;101003.22;5065498;27;46390;-65
2022/09/01 13:49:55;;;;;;;;;10.00;10.00;;;;;30.92;32.46;100991.06;5053982;27;45686;-65
2022/09/01 13:52:21;;;;;;;;;8.50;8.50;;;;;30.70;32.53;101001.81;5063012;28;45534;-67
2022/09/01 13:54:46;;;;;;;;;9.75;9.75;;;;;30.59;32.60;100987.31;5074474;28;45522;-66
2022/09/01 13:57:13;;;;;;;;;10.75;9.25;;;;;30.45;32.90;100992.94;5074687;27;45564;-65
2022/09/01 13:59:40;;;;;;;;;9.25;9.25;;;;;30.43;32.83;100995.75;5107058;27;45443;-66
2022/09/01 14:02:06;;;;;;;;;10.75;10.75;;;;;30.27;32.30;100983.53;5076416;27;45328;-67
2022/09/01 14:04:32;;;;;;;;;10.75;10.75;;;;;30.36;32.44;100996.34;5078408;27;45471;-65
2022/09/01 14:07:00;;;;;;;;;9.50;8.00;;;;;30.39;32.05;100990.69;5075393;27;45602;-65
2022/09/01 14:09:27;;;;;;;;;10.25;9.75;;;;;30.30;32.35;100986.88;5077682;28;45341;-67
2022/09/01 14:11:53;;;;;;;;;8.50;7.75;;;;;30.20;32.50;100988.50;5073103;28;45962;-65
2022/09/01 14:14:19;;;;;;;;;10.50;9.75;;;;;30.00;32.32;100985.50;5074942;28;45435;-64
2022/09/01 14:16:45;;;;;;;;;9.25;9.25;;;;;29.92;32.40;100984.34;5076012;28;46534;-64
2022/09/01 14:19:12;;;;;;;;;9.25;8.50;;;;;29.81;32.49;100979.78;5074197;27;45494;-66
2022/09/01 14:21:38;;;;;;;;;9.50;9.50;;;;;29.78;32.94;100979.97;5073084;28;45395;-64
2022/09/01 14:24:07;;;;;;;;;9.00;9.00;;;;;29.79;32.56;100976.31;5073529;28;45556;-69
2022/09/01 14:26:33;;;;;;;;;10.00;10.00;;;;;29.83;32.64;100982.34;5065869;27;45571;-66
2022/09/01 14:29:01;;;;;;;;;11.00;10.75;;;;;29.89;33.01;100980.03;5085758;27;45496;-65
2022/09/01 14:31:30;;;;;;;;;11.75;9.75;;;;;29.98;32.62;100983.91;5076563;27;45401;-67
2022/09/01 14:34:15;;;;;;;;;10.00;10.00;;;;;29.77;32.90;100968.31;5074155;27;45673;-64
2022/09/01 14:36:40;;;;;;;;;10.25;10.25;;;;;29.84;32.42;100976.84;5072281;28;47834;-65
2022/09/01 14:39:09;;;;;;;;;19.33;19.33;;;;;29.76;32.47;100947.72;5067381;27;45670;-67
2022/09/01 14:41:34;;;;;;;;;10.25;9.50;;;;;29.78;32.27;100967.38;5069865;27;45441;-68
2022/09/01 14:44:03;;;;;;;;;9.75;9.00;;;;;29.82;32.87;100967.97;5063251;28;45593;-64
2022/09/01 14:46:32;;;;;;;;;8.25;8.25;;;;;29.85;32.72;100967.78;5059389;27;45755;-66
2022/09/01 14:49:00;;;;;;;;;9.00;8.50;;;;;29.88;32.31;100963.97;5065164;28;45422;-65
2022/09/01 14:51:28;;;;;;;;;10.50;9.00;;;;;29.92;32.82;100957.34;5085275;27;45622;-65
2022/09/01 14:53:54;;;;;;;;;8.00;8.00;;;;;29.94;32.26;100964.34;5072485;28;45535;-64
2022/09/01 14:56:22;;;;;;;;;8.50;8.25;;;;;29.83;32.21;100952.63;5075180;27;46016;-64
2022/09/01 14:58:49;;;;;;;;;10.25;8.50;;;;;29.57;31.64;100953.59;5107029;27;45468;-68
2022/09/01 15:01:16;;;;;;;;;9.25;8.75;;;;;29.44;32.20;100957.31;5072061;28;45331;-64
2022/09/01 15:03:44;;;;;;;;;9.00;9.00;;;;;29.38;32.21;100928.97;5073964;28;45729;-66
2022/09/01 15:06:15;;;;;;;;;10.50;10.50;;;;;29.65;31.54;100949.47;5077418;27;46250;-65
2022/09/01 15:08:42;;;;;;;;;9.00;7.00;;;;;29.80;31.11;100951.91;5075545;27;45397;-65
2022/09/01 15:11:15;;;;;;;;;9.25;9.00;;;;;29.83;31.21;100941.84;5073458;27;45331;-65
2022/09/01 15:13:42;;;;;;;;;7.25;7.25;;;;;29.94;31.36;100934.66;5073574;27;45663;-66
2022/09/01 15:16:18;;;;;;;;;9.00;8.25;;;;;30.11;31.19;100938.78;5072830;27;45451;-65
2022/09/01 15:18:44;;;;;;;;;8.40;8.40;;;;;30.27;30.27;100937.59;5073184;27;45865;-67
2022/09/01 15:21:25;;;;;;;;;5.75;5.75;;;;;30.48;30.35;100930.53;5073650;27;45289;-65
2022/09/01 15:23:52;;;;;;;;;9.00;9.00;;;;;30.52;29.58;100920.34;5073515;27;45570;-64
2022/09/01 15:26:19;;;;;;;;;8.50;7.75;;;;;30.73;29.84;100933.97;5072835;27;45973;-65
2022/09/01 15:28:46;;;;;;;;;8.00;8.00;;;;;30.84;29.21;100921.34;5072840;27;45881;-65
2022/09/01 15:31:14;;;;;;;;;11.00;9.50;;;;;30.92;29.67;100920.75;5072548;27;45487;-64
2022/09/01 15:33:40;;;;;;;;;8.25;8.25;;;;;31.02;29.04;100915.44;5072327;27;45507;-65
2022/09/01 15:36:07;;;;;;;;;8.25;8.00;;;;;30.96;29.81;100915.94;5058078;28;47811;-65
2022/09/01 15:38:34;;;;;;;;;8.00;8.00;;;;;30.94;29.92;100905.22;5073240;28;45735;-66
2022/09/01 15:41:00;;;;;;;;;11.75;8.75;;;;;30.98;28.97;100901.28;5072801;27;45420;-65
2022/09/01 15:43:28;;;;;;;;;10.00;9.50;;;;;30.82;28.50;100906.19;5071684;27;45617;-67
2022/09/01 15:45:56;;;;;;;;;8.25;8.25;;;;;30.78;28.97;100902.03;5070971;28;45471;-65
2022/09/01 15:48:26;;;;;;;;;9.50;9.50;;;;;30.67;29.36;100912.84;5070574;28;45515;-65
2022/09/01 15:50:53;;;;;;;;;9.25;7.25;;;;;30.32;28.70;100916.50;5060689;27;45750;-65
2022/09/01 15:53:18;;;;;;;;;6.00;6.00;;;;;30.12;29.29;100904.53;5071330;28;45567;-65
2022/09/01 15:55:46;;;;;;;;;9.75;9.00;;;;;30.21;29.25;100907.34;5072430;27;45606;-64
2022/09/01 15:58:15;;;;;;;;;7.00;7.00;;;;;30.18;29.35;100899.50;5073527;28;45379;-66
2022/09/01 16:00:42;;;;;;;;;7.75;6.25;;;;;30.08;29.75;100901.19;5093546;27;45875;-66
2022/09/01 16:03:08;;;;;;;;;8.75;7.75;;;;;30.07;29.38;100904.03;5076758;28;45506;-65
2022/09/01 16:05:36;;;;;;;;;7.50;7.50;;;;;29.95;30.40;100893.19;5076565;27;45524;-66
2022/09/01 16:08:03;;;;;;;;;7.75;7.75;;;;;29.85;30.53;100897.56;5066399;27;45526;-65
2022/09/01 16:10:30;;;;;;;;;8.75;8.50;;;;;29.74;30.79;100902.94;5088705;27;45470;-64
2022/09/01 16:12:55;;;;;;;;;7.00;7.00;;;;;29.68;30.91;100901.53;5055134;27;45877;-65
2022/09/01 16:15:24;;;;;;;;;8.25;7.50;;;;;29.47;31.36;100895.03;5038862;27;45445;-64
2022/09/01 16:18:07;;;;;;;;;8.50;8.50;;;;;29.36;31.53;100895.84;5055034;27;45516;-66
2022/09/01 16:20:38;;;;;;;;;10.25;9.00;;;;;29.31;32.08;100890.78;5056187;27;45375;-66
2022/09/01 16:23:12;;;;;;;;;7.50;7.50;;;;;29.29;31.92;100892.75;5072052;28;45330;-65
2022/09/01 16:25:38;;;;;;;;;8.75;8.75;;;;;29.22;32.77;100893.31;5077362;27;46240;-64
2022/09/01 16:28:24;;;;;;;;;8.25;7.00;;;;;28.95;32.81;100884.41;5077837;27;45310;-64
2022/09/01 16:30:54;;;;;;;;;7.75;7.75;;;;;28.87;32.58;100888.63;5063001;27;45366;-67
2022/09/01 16:33:20;;;;;;;;;9.00;9.00;;;;;28.66;32.82;100872.16;5075487;27;45558;-64
2022/09/01 16:36:06;;;;;;;;;8.00;7.00;;;;;28.66;32.79;100886.50;5069282;27;45448;-65
2022/09/01 16:38:38;;;;;;;;;9.25;9.25;;;;;28.69;32.62;100891.69;5084433;27;45364;-67
2022/09/01 16:41:43;;;;;;;;;8.75;8.75;;;;;28.65;33.02;100890.19;5065222;27;45432;-65
2022/09/01 16:44:17;;;;;;;;;8.25;8.25;;;;;28.61;33.01;100891.34;5074500;27;45615;-66
2022/09/01 16:46:57;;;;;;;;;10.00;10.00;;;;;28.48;33.23;100880.59;5075345;27;46567;-66
2022/09/01 16:49:35;;;;;;;;;9.00;7.75;;;;;28.48;33.00;100896.75;5075419;27;45710;-70
2022/09/01 16:52:15;;;;;;;;;8.00;8.00;;;;;28.41;33.52;100879.28;5073982;28;45366;-70
2022/09/01 16:54:47;;;;;;;;;8.00;8.00;;;;;28.44;33.65;100892.53;5083686;27;45583;-71
2022/09/01 16:57:35;;;;;;;;;9.00;8.00;;;;;28.42;33.65;100885.53;5073299;27;46776;-71
2022/09/01 17:00:07;;;;;;;;;10.33;10.33;;;;;28.36;33.68;100894.91;5077712;27;45326;-67
2022/09/01 17:03:00;;;;;;;;;11.00;8.00;;;;;28.18;33.88;100901.56;5077456;27;45443;-66
2022/09/01 17:05:31;;;;;;;;;10.25;9.25;;;;;28.10;33.89;100875.19;5075704;27;45448;-68
2022/09/01 17:08:06;;;;;;;;;9.75;8.75;;;;;28.21;33.58;100899.50;5058987;27;45689;-67
2022/09/01 17:10:41;;;;;;;;;9.25;9.25;;;;;28.09;33.88;100868.06;5075423;27;45467;-68
2022/09/01 17:13:21;;;;;;;;;12.25;10.25;;;;;28.13;33.44;100885.75;5091828;27;45477;-68
2022/09/01 17:16:06;;;;;;;;;11.25;11.25;;;;;28.01;33.66;100870.44;5075524;27;45500;-67
2022/09/01 17:18:50;;;;;;;;;12.00;10.00;;;;;27.97;33.59;100874.31;5078367;27;45492;-68
2022/09/01 17:21:41;;;;;;;;;10.00;8.33;;;;;27.95;33.56;100882.47;5072082;28;45763;-69
2022/09/01 17:24:32;;;;;;;;;11.75;9.25;;;;;27.90;33.59;100882.81;5075538;27;45384;-69
2022/09/01 17:27:03;;;;;;;;;11.75;10.75;;;;;27.79;33.65;100879.97;5075031;27;45882;-66
2022/09/01 17:29:46;;;;;;;;;8.67;8.67;;;;;27.79;33.86;100884.47;5075146;27;45513;-65
2022/09/01 17:32:40;;;;;;;;;7.67;7.67;;;;;27.76;34.04;100880.13;5079548;27;45378;-64
2022/09/01 17:35:15;;;;;;;;;13.00;10.00;;;;;27.77;33.88;100876.50;5076351;27;45485;-68
2022/09/01 17:37:56;;;;;;;;;11.25;11.25;;;;;27.68;33.79;100882.50;5074790;27;45510;-65
2022/09/01 17:40:25;;;;;;;;;8.75;8.75;;;;;27.67;34.01;100878.97;5056396;28;48101;-65
2022/09/01 17:43:11;;;;;;;;;10.00;9.75;;;;;27.64;34.04;100876.44;5074871;28;45485;-66
2022/09/01 17:45:50;;;;;;;;;10.00;9.00;;;;;27.66;34.10;100879.91;5069587;28;45298;-66
2022/09/01 17:48:36;;;;;;;;;12.67;10.67;;;;;27.60;34.00;100882.16;5078851;27;45543;-65
2022/09/01 17:51:26;;;;;;;;;11.00;10.00;;;;;27.57;33.99;100877.81;5065721;27;46024;-65
2022/09/01 17:54:26;;;;;;;;;10.67;10.67;;;;;27.54;34.01;100882.56;5067125;28;45343;-66
2022/09/01 17:57:03;;;;;;;;;10.00;9.67;;;;;27.49;33.68;100878.34;5053128;28;45515;-65
2022/09/01 17:59:35;;;;;;;;;10.33;9.00;;;;;27.44;34.41;100876.94;5040891;28;45514;-65
2022/09/01 18:02:25;;;;;;;;;10.00;9.33;;;;;27.33;34.42;100864.19;5088764;27;47589;-64
2022/09/01 18:05:13;;;;;;;;;11.00;11.00;;;;;27.34;34.33;100876.69;5055592;28;45489;-64
2022/09/01 18:07:53;;;;;;;;;11.00;11.00;;;;;27.33;34.64;100883.03;5076776;27;45299;-66
2022/09/01 18:10:31;;;;;;;;;9.00;9.00;;;;;27.32;34.36;100891.22;5056509;28;45464;-67
2022/09/01 18:13:04;;;;;;;;;10.33;8.67;;;;;27.26;34.51;100887.97;5067921;27;45661;-66
2022/09/01 18:15:40;;;;;;;;;11.33;10.67;;;;;27.26;34.66;100887.06;5072911;28;45934;-65
2022/09/01 18:18:26;;;;;;;;;12.00;9.67;;;;;27.16;34.49;100881.41;5075952;27;45475;-67
2022/09/01 18:21:06;;;;;;;;;9.67;9.67;;;;;27.23;34.93;100889.97;5078189;27;45514;-64
2022/09/01 18:23:37;;;;;;;;;11.33;11.33;;;;;27.22;34.94;100893.63;5074046;27;45448;-64
2022/09/01 18:26:31;;;;;;;;;14.33;12.00;;;;;27.14;34.45;100890.53;5074265;27;45503;-68
2022/09/01 18:28:58;;;;;;;;;11.00;9.50;;;;;27.10;35.04;100883.63;5073901;27;45495;-64
2022/09/01 18:31:33;;;;;;;;;12.00;11.00;;;;;27.16;35.53;100899.38;5074379;27;45314;-65
2022/09/01 18:34:27;;;;;;;;;11.00;11.00;;;;;27.08;35.23;100891.81;5073430;28;45400;-67
2022/09/01 18:37:09;;;;;;;;;12.33;11.00;;;;;27.10;35.72;100891.69;5064913;28;45460;-65
2022/09/01 18:40:12;;;;;;;;;9.00;9.00;;;;;27.13;36.37;100899.59;5076744;27;45307;-68
2022/09/01 18:43:09;;;;;;;;;11.00;10.33;;;;;27.10;35.54;100894.38;5077514;27;45480;-70
2022/09/01 18:45:46;;;;;;;;;15.67;15.67;;;;;27.07;35.74;100898.13;5088976;27;48006;-64
2022/09/01 18:48:33;;;;;;;;;13.00;12.67;;;;;27.10;34.83;100900.66;5073779;27;45367;-66
2022/09/01 18:51:10;;;;;;;;;14.00;14.00;;;;;27.06;35.06;100899.09;5073490;27;45370;-70
2022/09/01 18:53:54;;;;;;;;;12.33;11.67;;;;;27.05;34.91;100891.97;5052794;28;45514;-65
2022/09/01 18:56:31;;;;;;;;;13.00;10.33;;;;;26.96;36.05;100895.28;5068322;28;45359;-65
2022/09/01 18:59:03;;;;;;;;;10.33;9.33;;;;;26.90;35.08;100885.78;5073997;27;45746;-65
2022/09/01 19:01:35;;;;;;;;;16.00;12.67;;;;;26.84;35.84;100891.56;5073774;27;45325;-65
2022/09/01 19:04:22;;;;;;;;;10.67;10.67;;;;;26.79;36.13;100886.50;5073694;27;45487;-66
2022/09/01 19:07:00;;;;;;;;;8.67;8.67;;;;;26.78;36.38;100898.19;5087879;27;45412;-68
2022/09/01 19:09:53;;;;;;;;;13.00;10.67;;;;;26.78;36.38;100891.94;5073597;27;45492;-65
2022/09/01 19:12:40;;;;;;;;;11.00;11.00;;;;;26.72;36.44;100901.28;5064604;27;45485;-66
2022/09/01 19:15:24;;;;;;;;;15.33;12.67;;;;;26.74;36.60;100903.84;5089701;27;45407;-67
2022/09/01 19:18:08;;;;;;;;;13.67;12.00;;;;;26.74;36.06;100899.34;5073543;27;46306;-72
2022/09/01 19:20:50;;;;;;;;;13.33;11.00;;;;;26.69;36.60;100903.28;5075957;28;45471;-64
2022/09/01 19:23:35;;;;;;;;;13.67;12.00;;;;;26.67;37.31;100908.72;5076963;27;45541;-64
2022/09/01 19:26:10;;;;;;;;;14.67;12.33;;;;;26.67;36.11;100894.44;5073944;27;45453;-64
2022/09/01 19:28:59;;;;;;;;;12.33;12.33;;;;;26.70;36.25;100905.88;5072036;27;47843;-67
2022/09/01 19:31:41;;;;;;;;;13.33;12.67;;;;;26.61;36.29;100899.25;5070419;27;45429;-69
2022/09/01 19:34:17;;;;;;;;;12.00;9.33;;;;;26.63;36.44;100905.38;5060715;27;45425;-64
2022/09/01 19:36:53;;;;;;;;;12.33;12.33;;;;;26.59;36.66;100908.34;5077570;27;45539;-65
2022/09/01 19:39:26;;;;;;;;;12.33;12.33;;;;;26.50;37.07;100916.94;5077197;27;45439;-65
2022/09/01 19:42:01;;;;;;;;;10.00;10.00;;;;;26.49;37.05;100918.78;5076724;27;45421;-64
2022/09/01 19:44:52;;;;;;;;;14.33;11.00;;;;;26.44;37.34;100920.88;5077150;27;45716;-65
2022/09/01 19:47:24;;;;;;;;;12.33;11.00;;;;;26.41;37.59;100915.69;5050154;27;45632;-64
2022/09/01 19:50:19;;;;;;;;;12.33;10.67;;;;;26.32;36.96;100900.16;5069292;27;46716;-63
2022/09/01 19:52:53;;;;;;;;;12.00;11.00;;;;;26.42;37.21;100915.59;5061007;27;45530;-64
2022/09/01 19:55:41;;;;;;;;;14.67;13.00;;;;;26.42;37.37;100914.75;5067812;28;45691;-64
2022/09/01 19:58:21;;;;;;;;;12.67;11.33;;;;;26.37;37.10;100915.03;5073879;27;45384;-65
2022/09/01 20:00:57;;;;;;;;;16.00;14.00;;;;;26.31;37.65;100914.53;5074742;27;45485;-64
2022/09/01 20:03:43;;;;;;;;;11.33;11.33;;;;;26.31;37.19;100918.06;5065544;27;45385;-68
2022/09/01 20:06:17;;;;;;;;;12.33;12.00;;;;;26.29;37.28;100921.81;5068681;27;45511;-66
2022/09/01 20:09:04;;;;;;;;;14.00;14.00;;;;;26.22;37.90;100924.03;5066623;27;45475;-70
2022/09/01 20:11:51;;;;;;;;;10.33;10.33;;;;;26.20;37.89;100921.44;5073962;27;45382;-68
2022/09/01 20:14:31;;;;;;;;;10.67;10.67;;;;;26.18;37.24;100917.13;5055977;28;46145;-71
2022/09/01 20:17:04;;;;;;;;;13.00;11.33;;;;;26.08;37.61;100898.03;5037466;28;45672;-67
2022/09/01 20:19:38;;;;;;;;;11.33;11.33;;;;;26.13;37.47;100920.06;5038098;28;45453;-64
2022/09/01 20:22:43;;;;;;;;;11.67;11.67;;;;;26.11;37.45;100916.63;5052955;28;45543;-63
2022/09/01 20:25:25;;;;;;;;;11.33;11.33;;;;;26.06;37.34;100912.50;5031538;28;45598;-65
2022/09/01 20:28:02;;;;;;;;;10.67;10.67;;;;;25.98;37.40;100916.50;5046774;28;45406;-72
2022/09/01 20:30:42;;;;;;;;;9.33;9.33;;;;;25.85;37.92;100898.50;5047111;28;45464;-66
2022/09/01 20:33:21;;;;;;;;;15.33;14.33;;;;;25.98;37.22;100915.59;5046942;28;46572;-65
2022/09/01 20:36:06;;;;;;;;;12.33;12.33;;;;;25.91;37.46;100898.16;5037427;28;45468;-66
2022/09/01 20:41:48;;;;;;;;;11.00;9.33;;;;;25.92;36.83;100916.00;5048465;28;45481;-67
2022/09/01 20:44:37;;;;;;;;;12.00;12.00;;;;;25.88;37.21;100915.28;5031096;28;45819;-64
2022/09/01 20:47:05;;;;;;;;;12.33;12.00;;;;;25.91;37.26;100908.88;5032241;28;45358;-64
2022/09/01 20:49:33;;;;;;;;;10.00;10.00;;;;;25.81;37.69;100881.69;5036606;28;45605;-66
2022/09/01 20:52:06;;;;;;;;;10.00;10.00;;;;;25.96;37.29;100912.16;5047153;28;45591;-68
2022/09/01 20:54:41;;;;;;;;;9.33;9.33;;;;;25.87;37.15;100902.00;5050742;28;45439;-72
2022/09/01 20:57:22;;;;;;;;;12.00;11.00;;;;;25.92;37.04;100910.63;5053950;28;45476;-69
2022/09/01 20:59:59;;;;;;;;;12.33;12.00;;;;;25.87;36.92;100907.34;5054851;28;45596;-65
2022/09/01 21:02:31;;;;;;;;;10.00;10.00;;;;;25.85;37.16;100901.19;5054341;28;45443;-67
2022/09/01 21:05:05;;;;;;;;;10.00;10.00;;;;;25.68;37.05;100894.13;5051069;28;46665;-70
2022/09/01 21:07:40;;;;;;;;;11.00;10.00;;;;;25.62;37.15;100889.97;5031987;28;45637;-68
2022/09/01 21:10:28;;;;;;;;;8.33;8.33;;;;;25.72;37.13;100914.44;5037737;28;45706;-68
2022/09/01 21:13:09;;;;;;;;;10.33;10.33;;;;;25.72;37.36;100911.75;5068457;28;45412;-66
2022/09/01 21:15:50;;;;;;;;;11.00;11.00;;;;;25.67;37.28;100897.75;5069454;27;45443;-63
2022/09/01 21:18:55;;;;;;;;;8.67;8.33;;;;;25.62;37.00;100897.16;5068812;27;45374;-65
2022/09/01 21:21:47;;;;;;;;;11.67;10.67;;;;;25.62;37.25;100895.34;5031561;28;45459;-70
2022/09/01 21:24:16;;;;;;;;;9.33;9.33;;;;;25.68;37.19;100911.09;5061700;27;45596;-63
2022/09/01 21:26:55;;;;;;;;;10.00;8.00;;;;;25.68;37.08;100912.91;5073549;27;45421;-64
2022/09/01 21:29:37;;;;;;;;;10.67;10.33;;;;;25.62;37.14;100910.56;5087137;27;45437;-71
2022/09/01 21:32:03;;;;;;;;;11.67;11.33;;;;;25.43;37.33;100887.50;5063657;27;45689;-69
2022/09/01 21:34:32;;;;;;;;;11.00;10.33;;;;;25.50;37.06;100909.47;5065703;27;45588;-68
2022/09/01 21:37:04;;;;;;;;;11.67;10.00;;;;;25.30;37.66;100884.66;5072959;27;46269;-68
2022/09/01 21:39:31;;;;;;;;;9.00;9.00;;;;;25.47;37.45;100909.66;5068211;28;45524;-63
2022/09/01 21:41:58;;;;;;;;;11.33;9.33;;;;;25.44;36.89;100907.13;5067291;27;45439;-67
2022/09/01 21:44:27;;;;;;;;;10.33;8.67;;;;;25.36;37.68;100903.06;5066262;28;45637;-70
2022/09/01 21:46:57;;;;;;;;;7.00;7.00;;;;;25.40;38.04;100909.13;5069922;27;45578;-64
2022/09/01 21:49:23;;;;;;;;;8.33;8.33;;;;;25.38;37.87;100903.84;5062309;27;45543;-64
2022/09/01 21:51:49;;;;;;;;;11.00;11.00;;;;;25.35;37.36;100901.34;5066433;27;45531;-66
2022/09/01 21:54:15;;;;;;;;;10.00;9.00;;;;;25.36;37.56;100899.53;5070675;28;45494;-66
2022/09/01 21:56:41;;;;;;;;;12.67;12.00;;;;;25.28;38.04;100894.59;5072329;27;45545;-65
2022/09/01 21:59:10;;;;;;;;;13.00;13.00;;;;;25.23;37.05;100888.66;5074899;27;45278;-65
2022/09/01 22:01:35;;;;;;;;;12.67;12.67;;;;;25.03;37.27;100852.22;5071380;27;47029;-68
2022/09/01 22:04:03;;;;;;;;;11.33;11.00;;;;;25.29;37.38;100899.00;5072838;27;45614;-64
2022/09/01 22:06:35;;;;;;;;;9.67;9.67;;;;;25.27;37.60;100892.91;5071455;27;45628;-69
2022/09/01 22:09:02;;;;;;;;;11.67;10.00;;;;;25.22;37.23;100883.38;5072022;28;45530;-64
2022/09/01 22:11:32;;;;;;;;;13.33;13.33;;;;;25.17;37.10;100878.22;5071087;27;45346;-68
2022/09/01 22:14:01;;;;;;;;;12.33;10.33;;;;;25.25;36.35;100891.22;5052578;28;45863;-68
2022/09/01 22:16:35;;;;;;;;;9.00;7.67;;;;;25.26;36.37;100880.41;5047711;28;45683;-65
2022/09/01 22:19:01;;;;;;;;;8.33;7.33;;;;;25.21;36.94;100873.59;5028798;28;45879;-64
2022/09/01 22:21:27;;;;;;;;;10.00;9.00;;;;;25.21;37.23;100884.31;5057036;28;45373;-65
2022/09/01 22:23:52;;;;;;;;;7.67;6.67;;;;;25.13;36.95;100869.53;5051714;28;45477;-64
2022/09/01 22:26:25;;;;;;;;;11.33;9.33;;;;;25.19;36.73;100879.03;5029126;28;45645;-63
2022/09/01 22:28:54;;;;;;;;;8.00;8.00;;;;;25.17;36.60;100871.09;5051399;28;45875;-64
2022/09/01 22:31:20;;;;;;;;;8.67;8.67;;;;;25.14;37.00;100873.91;5037655;28;45478;-64
2022/09/01 22:33:46;;;;;;;;;10.00;9.33;;;;;25.15;36.51;100869.41;5033368;28;45546;-67
2022/09/01 22:36:22;;;;;;;;;9.33;7.67;;;;;25.13;36.63;100869.53;5033914;28;47169;-64